createdAt,value
2022-10-07T00:00:58.726Z,102641.69
2022-10-07T00:03:27.059Z,102649.09
2022-10-07T00:06:00.152Z,102649.28
2022-10-07T00:08:26.627Z,102645.88
2022-10-07T00:10:53.112Z,102637.97
2022-10-07T00:13:19.608Z,102638.22
2022-10-07T00:15:46.144Z,102638.47
2022-10-07T00:18:12.592Z,102632.28
2022-10-07T00:20:39.814Z,102631.41
2022-10-07T00:23:07.883Z,102625.31
2022-10-07T00:25:37.873Z,102619.13
2022-10-07T00:28:05.043Z,102616.50
2022-10-07T00:30:31.692Z,102619.31
2022-10-07T00:32:58.313Z,102619.41
2022-10-07T00:35:25.867Z,102621.91
2022-10-07T00:37:52.400Z,102616.41
2022-10-07T00:40:18.892Z,102607.34
2022-10-07T00:42:46.820Z,102609.09
2022-10-07T00:45:16.723Z,102608.50
2022-10-07T00:47:49.261Z,102603.34
2022-10-07T00:50:23.699Z,102607.28
2022-10-07T00:52:55.308Z,102599.28
2022-10-07T00:55:26.208Z,102603.91
2022-10-07T00:57:57.288Z,102598.59
2022-10-07T01:00:24.117Z,102589.56
2022-10-07T01:02:51.753Z,102595.78
2022-10-07T01:05:19.234Z,102581.41
2022-10-07T01:07:48.467Z,102574.25
2022-10-07T01:10:19.914Z,102578.84
2022-10-07T01:13:09.265Z,102576.16
2022-10-07T01:15:44.495Z,102582.44
2022-10-07T01:18:21.512Z,102574.41
2022-10-07T01:20:57.855Z,102575.38
2022-10-07T01:23:28.157Z,102575.47
2022-10-07T01:26:14.145Z,102566.56
2022-10-07T01:28:44.526Z,102563.78
2022-10-07T01:31:16.872Z,102566.50
2022-10-07T01:33:50.706Z,102550.28
2022-10-07T01:36:21.616Z,102545.84
2022-10-07T01:38:53.453Z,102548.44
2022-10-07T01:41:24.459Z,102535.91
2022-10-07T01:43:54.151Z,102536.84
2022-10-07T01:46:26.441Z,102532.41
2022-10-07T01:48:56.257Z,102529.63
2022-10-07T01:51:27.131Z,102520.75
2022-10-07T01:54:21.693Z,102526.41
2022-10-07T01:57:07.695Z,102525.91
2022-10-07T02:00:01.231Z,102512.75
2022-10-07T02:03:17.790Z,102516.50
2022-10-07T02:05:58.392Z,102509.38
2022-10-07T02:08:24.956Z,102505.88
2022-10-07T02:11:04.438Z,102499.72
2022-10-07T02:13:38.644Z,102504.31
2022-10-07T02:16:21.875Z,102492.84
2022-10-07T02:18:53.542Z,102487.53
2022-10-07T02:21:26.784Z,102485.78
2022-10-07T02:23:59.679Z,102478.63
2022-10-07T02:26:29.417Z,102476.91
2022-10-07T02:29:01.623Z,102482.31
2022-10-07T02:31:32.573Z,102479.59
2022-10-07T02:34:08.010Z,102466.97
2022-10-07T02:36:40.946Z,102469.56
2022-10-07T02:39:07.995Z,102465.84
2022-10-07T02:41:58.663Z,102465.91
2022-10-07T02:44:56.052Z,102464.34
2022-10-07T02:47:35.694Z,102454.53
2022-10-07T02:50:07.404Z,102456.44
2022-10-07T02:52:35.025Z,102450.25
2022-10-07T02:55:09.497Z,102453.75
2022-10-07T02:57:51.961Z,102444.78
2022-10-07T03:00:19.757Z,102455.41
2022-10-07T03:03:02.560Z,102453.66
2022-10-07T03:05:54.504Z,102449.91
2022-10-07T03:08:23.227Z,102449.03
2022-10-07T03:10:50.809Z,102449.03
2022-10-07T03:13:18.041Z,102438.41
2022-10-07T03:15:52.038Z,102444.09
2022-10-07T03:18:26.638Z,102428.16
2022-10-07T03:21:00.886Z,102435.38
2022-10-07T03:23:29.203Z,102431.81
2022-10-07T03:26:00.945Z,102423.03
2022-10-07T03:28:30.028Z,102416.84
2022-10-07T03:31:07.615Z,102423.38
2022-10-07T03:33:37.399Z,102423.38
2022-10-07T03:36:05.987Z,102418.06
2022-10-07T03:38:33.612Z,102409.28
2022-10-07T03:41:01.926Z,102403.88
2022-10-07T03:43:28.815Z,102408.41
2022-10-07T03:45:56.895Z,102407.53
2022-10-07T03:48:23.394Z,102399.38
2022-10-07T03:50:57.201Z,102394.06
2022-10-07T03:53:29.467Z,102395.88
2022-10-07T03:55:57.746Z,102396.03
2022-10-07T03:58:24.454Z,102394.28
2022-10-07T04:00:51.667Z,102396.91
2022-10-07T04:03:18.694Z,102398.63
2022-10-07T04:05:59.638Z,102389.75
2022-10-07T04:08:29.051Z,102392.56
2022-10-07T04:10:59.649Z,102395.34
2022-10-07T04:13:27.102Z,102394.38
2022-10-07T04:15:54.682Z,102397.84
2022-10-07T04:18:22.563Z,102401.50
2022-10-07T04:20:51.390Z,102391.78
2022-10-07T04:23:17.926Z,102391.16
2022-10-07T04:25:46.767Z,102387.78
2022-10-07T04:28:23.229Z,102381.59
2022-10-07T04:30:55.148Z,102391.53
2022-10-07T04:33:27.393Z,102388.19
2022-10-07T04:35:55.857Z,102391.06
2022-10-07T04:38:27.585Z,102384.88
2022-10-07T04:40:55.736Z,102389.41
2022-10-07T04:43:23.563Z,102380.34
2022-10-07T04:46:09.169Z,102381.22
2022-10-07T04:48:43.859Z,102382.00
2022-10-07T04:51:10.639Z,102390.00
2022-10-07T04:53:39.492Z,102380.25
2022-10-07T04:56:12.074Z,102374.09
2022-10-07T04:58:38.629Z,102368.00
2022-10-07T05:01:09.349Z,102369.06
2022-10-07T05:03:41.029Z,102370.97
2022-10-07T05:06:23.993Z,102363.03
2022-10-07T05:08:52.997Z,102365.84
2022-10-07T05:11:20.591Z,102364.00
2022-10-07T05:14:02.234Z,102368.53
2022-10-07T05:16:31.294Z,102363.13
2022-10-07T05:18:58.568Z,102360.25
2022-10-07T05:21:25.097Z,102361.91
2022-10-07T05:23:58.062Z,102355.47
2022-10-07T05:26:29.974Z,102359.91
2022-10-07T05:28:59.434Z,102353.56
2022-10-07T05:31:33.357Z,102351.66
2022-10-07T05:34:06.041Z,102349.72
2022-10-07T05:36:32.958Z,102350.41
2022-10-07T05:39:01.115Z,102343.13
2022-10-07T05:41:45.394Z,102343.19
2022-10-07T05:44:18.661Z,102342.31
2022-10-07T05:46:46.918Z,102343.28
2022-10-07T05:49:15.630Z,102338.84
2022-10-07T05:51:42.263Z,102339.81
2022-10-07T05:54:13.742Z,102342.59
2022-10-07T05:56:42.838Z,102342.69
2022-10-07T05:59:10.401Z,102340.16
2022-10-07T06:01:38.783Z,102334.84
2022-10-07T06:04:14.287Z,102334.75
2022-10-07T06:06:44.043Z,102324.94
2022-10-07T06:09:30.688Z,102330.34
2022-10-07T06:12:18.194Z,102330.25
2022-10-07T06:14:50.508Z,102328.50
2022-10-07T06:17:17.067Z,102324.84
2022-10-07T06:19:45.462Z,102323.88
2022-10-07T06:22:11.978Z,102323.03
2022-10-07T06:24:43.812Z,102324.84
2022-10-07T06:27:10.855Z,102333.03
2022-10-07T06:29:38.742Z,102330.34
2022-10-07T06:32:05.877Z,102325.03
2022-10-07T06:34:33.125Z,102323.28
2022-10-07T06:36:59.924Z,102327.72
2022-10-07T06:39:26.978Z,102316.75
2022-10-07T06:41:54.584Z,102322.75
2022-10-07T06:44:34.937Z,102325.19
2022-10-07T06:47:01.625Z,102321.47
2022-10-07T06:49:28.199Z,102326.69
2022-10-07T06:51:54.682Z,102324.59
2022-10-07T06:54:25.542Z,102327.88
2022-10-07T06:56:52.238Z,102323.94
2022-10-07T06:59:18.715Z,102318.13
2022-10-07T07:01:52.939Z,102328.28
2022-10-07T07:04:27.363Z,102331.09
2022-10-07T07:06:54.619Z,102326.69
2022-10-07T07:09:22.767Z,102319.47
2022-10-07T07:11:54.251Z,102318.63
2022-10-07T07:14:35.643Z,102323.88
2022-10-07T07:17:14.635Z,102324.38
2022-10-07T07:19:43.844Z,102329.34
2022-10-07T07:22:11.933Z,102326.53
2022-10-07T07:24:40.275Z,102326.31
2022-10-07T07:27:07.926Z,102329.63
2022-10-07T07:29:35.318Z,102332.06
2022-10-07T07:32:04.289Z,102333.94
2022-10-07T07:34:37.994Z,102331.31
2022-10-07T07:37:05.963Z,102333.19
2022-10-07T07:39:37.543Z,102324.41
2022-10-07T07:42:10.086Z,102328.88
2022-10-07T07:44:38.890Z,102324.31
2022-10-07T07:47:09.253Z,102322.59
2022-10-07T07:49:36.544Z,102319.09
2022-10-07T07:52:04.300Z,102323.91
2022-10-07T07:54:41.825Z,102322.13
2022-10-07T07:57:08.694Z,102323.00
2022-10-07T07:59:37.315Z,102325.69
2022-10-07T08:02:05.703Z,102330.72
2022-10-07T08:04:36.231Z,102319.81
2022-10-07T08:07:03.451Z,102311.88
2022-10-07T08:09:30.087Z,102317.25
2022-10-07T08:11:57.622Z,102306.94
2022-10-07T08:14:24.291Z,102310.44
2022-10-07T08:16:55.518Z,102311.25
2022-10-07T08:19:22.008Z,102308.91
2022-10-07T08:21:48.853Z,102299.81
2022-10-07T08:24:25.706Z,102303.03
2022-10-07T08:26:53.615Z,102298.97
2022-10-07T08:29:21.157Z,102299.84
2022-10-07T08:31:49.211Z,102302.69
2022-10-07T08:34:17.156Z,102299.84
2022-10-07T08:36:47.648Z,102297.75
2022-10-07T08:39:15.041Z,102297.72
2022-10-07T08:42:05.519Z,102291.66
2022-10-07T08:44:41.518Z,102288.41
2022-10-07T08:47:34.578Z,102284.19
2022-10-07T08:50:19.693Z,102286.47
2022-10-07T08:53:11.607Z,102278.16
2022-10-07T08:55:45.865Z,102267.19
2022-10-07T08:58:30.936Z,102273.59
2022-10-07T09:01:12.726Z,102265.63
2022-10-07T09:04:15.222Z,102273.88
2022-10-07T09:06:55.847Z,102259.75
2022-10-07T09:09:28.253Z,102258.66
2022-10-07T09:11:56.218Z,102264.94
2022-10-07T09:14:38.150Z,102263.38
2022-10-07T09:17:15.494Z,102256.06
2022-10-07T09:19:46.760Z,102251.91
2022-10-07T09:22:21.718Z,102253.38
2022-10-07T09:25:09.023Z,102246.09
2022-10-07T09:27:37.766Z,102248.84
2022-10-07T09:30:06.401Z,102240.41
2022-10-07T09:32:35.478Z,102240.25
2022-10-07T09:35:06.901Z,102237.81
2022-10-07T09:37:34.201Z,102236.25
2022-10-07T09:40:23.236Z,102233.53
2022-10-07T09:42:50.594Z,102226.09
2022-10-07T09:45:23.863Z,102233.59
2022-10-07T09:47:55.881Z,102234.75
2022-10-07T09:50:38.988Z,102224.81
2022-10-07T09:53:18.279Z,102221.97
2022-10-07T09:55:45.333Z,102219.22
2022-10-07T09:58:29.235Z,102208.44
2022-10-07T10:00:57.919Z,102209.88
2022-10-07T10:03:35.716Z,102208.56
2022-10-07T10:06:09.642Z,102207.97
2022-10-07T10:08:43.099Z,102200.91
2022-10-07T10:11:25.691Z,102198.34
2022-10-07T10:13:56.368Z,102195.56
2022-10-07T10:16:26.065Z,102195.53
2022-10-07T10:19:02.361Z,102192.47
2022-10-07T10:21:32.541Z,102189.25
2022-10-07T10:24:10.387Z,102186.63
2022-10-07T10:26:48.738Z,102174.38
2022-10-07T10:29:40.074Z,102175.78
2022-10-07T10:32:37.246Z,102169.25
2022-10-07T10:35:36.815Z,102159.19
2022-10-07T10:38:26.211Z,102161.72
2022-10-07T10:41:11.505Z,102159.34
2022-10-07T10:44:01.551Z,102153.25
2022-10-07T10:46:39.357Z,102152.09
2022-10-07T10:49:36.478Z,102143.59
2022-10-07T10:52:25.843Z,102135.59
2022-10-07T10:55:08.259Z,102133.09
2022-10-07T10:58:16.393Z,102127.53
2022-10-07T11:01:00.141Z,102121.31
2022-10-07T11:03:55.061Z,102127.56
2022-10-07T11:06:22.418Z,102122.66
2022-10-07T11:08:52.663Z,102114.47
2022-10-07T11:11:21.784Z,102109.94
2022-10-07T11:14:12.147Z,102100.34
2022-10-07T11:16:44.781Z,102112.06
2022-10-07T11:19:23.816Z,102100.59
2022-10-07T11:21:52.723Z,102101.69
2022-10-07T11:24:44.111Z,102084.56
2022-10-07T11:27:25.991Z,102087.50
2022-10-07T11:30:10.082Z,102083.38
2022-10-07T11:33:08.216Z,102074.50
2022-10-07T11:35:43.881Z,102067.28
2022-10-07T11:38:10.295Z,102058.38
2022-10-07T11:40:45.541Z,102058.44
2022-10-07T11:43:47.625Z,102052.25
2022-10-07T11:46:33.671Z,102040.59
2022-10-07T11:49:14.827Z,102038.22
2022-10-07T11:52:02.838Z,102030.00
2022-10-07T11:54:42.328Z,102021.06
2022-10-07T11:57:20.810Z,102018.31
2022-10-07T11:59:58.032Z,102008.50
2022-10-07T12:02:30.736Z,102016.91
2022-10-07T12:05:01.339Z,102005.56
2022-10-07T12:07:40.583Z,102009.19
2022-10-07T12:10:20.105Z,102002.84
2022-10-07T12:12:49.105Z,102002.31
2022-10-07T12:15:40.479Z,101990.47
2022-10-07T12:18:10.384Z,101989.28
2022-10-07T12:20:50.169Z,101985.66
2022-10-07T12:23:19.734Z,101979.31
2022-10-07T12:25:48.225Z,101971.06
2022-10-07T12:28:36.681Z,101971.25
2022-10-07T12:31:16.288Z,101958.88
2022-10-07T12:34:04.215Z,101955.94
2022-10-07T12:36:31.511Z,101949.06
2022-10-07T12:39:01.899Z,101947.19
2022-10-07T12:41:34.442Z,101944.25
2022-10-07T12:44:20.080Z,101934.28
2022-10-07T12:46:51.174Z,101934.28
2022-10-07T12:49:17.628Z,101930.50
2022-10-07T12:51:45.156Z,101932.59
2022-10-07T12:54:20.439Z,101919.00
2022-10-07T12:56:48.246Z,101919.31
2022-10-07T12:59:33.360Z,101910.34
2022-10-07T13:02:31.450Z,101905.16
2022-10-07T13:05:27.381Z,101909.28
2022-10-07T13:08:36.094Z,101904.44
2022-10-07T13:11:44.306Z,101899.66
2022-10-07T13:14:23.907Z,101895.19
2022-10-07T13:17:25.193Z,101898.44
2022-10-07T13:20:06.629Z,101890.81
2022-10-07T13:22:33.455Z,101887.72
2022-10-07T13:25:07.568Z,101878.59
2022-10-07T13:27:35.234Z,101881.34
2022-10-07T13:30:05.974Z,101868.94
2022-10-07T13:32:34.499Z,101867.56
2022-10-07T13:35:30.226Z,101865.28
2022-10-07T13:37:56.900Z,101863.03
2022-10-07T13:40:35.434Z,101855.25
2022-10-07T13:43:06.892Z,101854.22
2022-10-07T13:45:43.544Z,101847.00
2022-10-07T13:48:25.939Z,101849.06
2022-10-07T13:50:56.914Z,101842.81
2022-10-07T13:53:28.412Z,101835.78
2022-10-07T13:56:20.561Z,101832.56
2022-10-07T13:58:47.652Z,101827.41
2022-10-07T14:01:15.627Z,101823.63
2022-10-07T14:04:16.806Z,101814.66
2022-10-07T14:06:43.671Z,101819.66
2022-10-07T14:09:21.488Z,101812.75
2022-10-07T14:11:54.008Z,101812.75
2022-10-07T14:14:33.486Z,101803.06
2022-10-07T14:17:00.498Z,101800.44
2022-10-07T14:19:32.702Z,101792.75
2022-10-07T14:22:04.405Z,101791.41
2022-10-07T14:24:32.836Z,101796.22
2022-10-07T14:27:00.592Z,101789.88
2022-10-07T14:29:30.933Z,101784.25
2022-10-07T14:32:39.774Z,101786.50
2022-10-07T14:35:19.717Z,101777.00
2022-10-07T14:37:47.362Z,101778.91
2022-10-07T14:40:23.245Z,101776.53
2022-10-07T14:42:53.769Z,101768.84
2022-10-07T14:45:22.426Z,101768.72
2022-10-07T14:47:49.687Z,101760.03
2022-10-07T14:50:19.444Z,101758.06
2022-10-07T14:52:51.859Z,101755.72
2022-10-07T14:55:23.186Z,101755.13
2022-10-07T14:57:50.037Z,101753.78
2022-10-07T15:00:20.107Z,101752.66
2022-10-07T15:02:48.023Z,101742.94
2022-10-07T15:05:16.745Z,101747.06
2022-10-07T15:07:43.821Z,101742.97
2022-10-07T15:10:23.119Z,101745.03
2022-10-07T15:12:50.099Z,101740.31
2022-10-07T15:15:18.621Z,101742.91
2022-10-07T15:17:45.550Z,101742.53
2022-10-07T15:20:15.040Z,101737.06
2022-10-07T15:22:42.519Z,101731.44
2022-10-07T15:25:15.214Z,101738.31
2022-10-07T15:27:42.282Z,101732.84
2022-10-07T15:30:09.628Z,101725.31
2022-10-07T15:32:36.196Z,101723.59
2022-10-07T15:35:03.855Z,101715.38
2022-10-07T15:37:32.252Z,101719.16
2022-10-07T15:39:58.872Z,101713.31
2022-10-07T15:42:26.122Z,101705.09
2022-10-07T15:44:55.767Z,101710.56
2022-10-07T15:47:22.290Z,101702.50
2022-10-07T15:49:49.491Z,101704.22
2022-10-07T15:52:16.538Z,101703.53
2022-10-07T15:54:46.432Z,101694.28
2022-10-07T15:57:14.175Z,101691.50
2022-10-07T15:59:40.878Z,101690.81
2022-10-07T16:02:14.828Z,101681.00
2022-10-07T16:04:42.853Z,101678.94
2022-10-07T16:07:11.993Z,101678.59
2022-10-07T16:09:38.942Z,101679.25
2022-10-07T16:12:06.333Z,101677.03
2022-10-07T16:14:37.073Z,101681.63
2022-10-07T16:17:04.141Z,101683.47
2022-10-07T16:19:30.634Z,101688.75
2022-10-07T16:21:57.154Z,101682.03
2022-10-07T16:24:24.806Z,101679.09
2022-10-07T16:26:51.380Z,101678.03
2022-10-07T16:29:40.670Z,101678.69
2022-10-07T16:32:10.513Z,101682.03
2022-10-07T16:34:43.403Z,101685.44
2022-10-07T16:37:11.131Z,101690.69
2022-10-07T16:39:37.830Z,101678.69
2022-10-07T16:42:04.391Z,101675.91
2022-10-07T16:44:32.876Z,101680.47
2022-10-07T16:47:00.219Z,101683.28
2022-10-07T16:49:29.240Z,101685.78
2022-10-07T16:51:56.656Z,101678.72
2022-10-07T16:54:29.997Z,101681.22
2022-10-07T16:56:58.562Z,101683.03
2022-10-07T16:59:25.853Z,101679.34
2022-10-07T17:01:55.571Z,101674.81
2022-10-07T17:04:26.602Z,101679.34
2022-10-07T17:06:53.660Z,101674.81
2022-10-07T17:09:21.777Z,101678.19
2022-10-07T17:11:48.267Z,101674.47
2022-10-07T17:14:20.805Z,101673.53
2022-10-07T17:16:49.789Z,101675.47
2022-10-07T17:19:18.519Z,101676.53
2022-10-07T17:21:48.077Z,101680.84
2022-10-07T17:24:20.450Z,101672.56
2022-10-07T17:26:47.656Z,101677.78
2022-10-07T17:29:18.284Z,101681.25
2022-10-07T17:31:48.242Z,101678.28
2022-10-07T17:34:20.818Z,101678.00
2022-10-07T17:36:48.248Z,101680.47
2022-10-07T17:39:15.213Z,101687.22
2022-10-07T17:41:41.748Z,101679.94
2022-10-07T17:44:12.631Z,101678.66
2022-10-07T17:46:40.348Z,101682.84
2022-10-07T17:49:09.582Z,101692.47
2022-10-07T17:51:37.399Z,101683.00
2022-10-07T17:54:07.103Z,101686.59
2022-10-07T17:56:34.513Z,101689.75
2022-10-07T17:59:02.132Z,101685.75
2022-10-07T18:01:31.778Z,101689.03
2022-10-07T18:04:02.359Z,101685.00
2022-10-07T18:06:31.430Z,101679.28
2022-10-07T18:09:03.311Z,101687.16
2022-10-07T18:11:48.886Z,101680.28
2022-10-07T18:14:34.598Z,101672.84
2022-10-07T18:17:01.162Z,101669.97
2022-10-07T18:19:29.359Z,101681.00
2022-10-07T18:21:56.428Z,101674.28
2022-10-07T18:24:28.702Z,101670.25
2022-10-07T18:26:58.880Z,101671.41
2022-10-07T18:29:26.735Z,101672.56
2022-10-07T18:31:53.357Z,101663.66
2022-10-07T18:34:23.208Z,101668.41
2022-10-07T18:36:53.789Z,101673.13
2022-10-07T18:39:22.615Z,101675.25
2022-10-07T18:41:49.149Z,101671.97
2022-10-07T18:44:18.912Z,101678.66
2022-10-07T18:46:45.543Z,101670.75
2022-10-07T18:49:14.890Z,101673.88
2022-10-07T18:51:41.565Z,101667.88
2022-10-07T18:54:10.474Z,101667.28
2022-10-07T18:56:40.897Z,101669.44
2022-10-07T18:59:08.155Z,101664.28
2022-10-07T19:01:34.935Z,101668.28
2022-10-07T19:04:10.941Z,101669.69
2022-10-07T19:06:40.169Z,101675.41
2022-10-07T19:09:08.937Z,101670.25
2022-10-07T19:11:35.850Z,101672.22
2022-10-07T19:14:06.658Z,101667.06
2022-10-07T19:16:36.638Z,101673.66
2022-10-07T19:19:09.782Z,101681.09
2022-10-07T19:21:36.365Z,101671.47
2022-10-07T19:24:04.904Z,101679.19
2022-10-07T19:26:38.532Z,101671.44
2022-10-07T19:29:06.412Z,101671.72
2022-10-07T19:31:35.989Z,101675.44
2022-10-07T19:34:27.183Z,101663.97
2022-10-07T19:36:55.029Z,101665.84
2022-10-07T19:39:23.569Z,101663.38
2022-10-07T19:41:51.039Z,101662.66
2022-10-07T19:44:19.675Z,101666.38
2022-10-07T19:46:50.143Z,101650.06
2022-10-07T19:49:16.711Z,101652.91
2022-10-07T19:51:45.461Z,101649.47
2022-10-07T19:54:13.356Z,101648.72
2022-10-07T19:56:40.601Z,101645.16
2022-10-07T19:59:12.242Z,101641.44
2022-10-07T20:01:43.968Z,101642.88
2022-10-07T20:04:18.524Z,101640.78
2022-10-07T20:06:45.427Z,101645.09
2022-10-07T20:09:15.431Z,101640.78
2022-10-07T20:11:42.343Z,101636.81
2022-10-07T20:14:13.506Z,101633.22
2022-10-07T20:16:40.163Z,101636.94
2022-10-07T20:19:10.992Z,101627.78
2022-10-07T20:21:38.152Z,101621.34
2022-10-07T20:24:08.487Z,101622.94
2022-10-07T20:26:37.706Z,101624.53
2022-10-07T20:29:06.146Z,101623.38
2022-10-07T20:31:35.600Z,101625.25
2022-10-07T20:34:03.423Z,101625.38
2022-10-07T20:36:36.269Z,101628.09
2022-10-07T20:39:24.939Z,101630.69
2022-10-07T20:42:11.830Z,101616.22
2022-10-07T20:44:39.035Z,101614.50
2022-10-07T20:47:07.637Z,101607.63
2022-10-07T20:49:35.163Z,101616.06
2022-10-07T20:52:07.000Z,101614.63
2022-10-07T20:54:36.695Z,101606.69
2022-10-07T20:57:03.989Z,101611.41
2022-10-07T20:59:31.206Z,101615.69
2022-10-07T21:01:58.738Z,101613.22
2022-10-07T21:04:29.716Z,101617.09
2022-10-07T21:06:56.815Z,101613.50
2022-10-07T21:09:24.145Z,101609.06
2022-10-07T21:11:51.498Z,101618.19
2022-10-07T21:14:23.318Z,101614.59
2022-10-07T21:16:50.000Z,101618.19
2022-10-07T21:19:17.085Z,101610.16
2022-10-07T21:21:44.177Z,101608.44
2022-10-07T21:24:12.594Z,101605.72
2022-10-07T21:26:39.098Z,101603.16
2022-10-07T21:29:08.116Z,101598.84
2022-10-07T21:31:35.675Z,101605.28
2022-10-07T21:34:07.905Z,101600.72
2022-10-07T21:36:37.037Z,101609.00
2022-10-07T21:39:04.246Z,101608.13
2022-10-07T21:41:34.306Z,101605.56
2022-10-07T21:44:11.563Z,101593.09
2022-10-07T21:46:39.970Z,101590.38
2022-10-07T21:49:07.705Z,101589.53
2022-10-07T21:51:34.673Z,101595.22
2022-10-07T21:54:06.088Z,101594.66
2022-10-07T21:56:34.039Z,101593.91
2022-10-07T21:59:01.474Z,101584.47
2022-10-07T22:01:28.830Z,101593.72
2022-10-07T22:04:01.871Z,101584.13
2022-10-07T22:06:50.601Z,101582.56
2022-10-07T22:09:20.266Z,101585.41
2022-10-07T22:11:47.013Z,101580.97
2022-10-07T22:14:15.722Z,101577.41
2022-10-07T22:16:42.333Z,101576.25
2022-10-07T22:19:10.713Z,101569.84
2022-10-07T22:21:40.155Z,101568.13
2022-10-07T22:24:09.046Z,101564.53
2022-10-07T22:26:41.934Z,101563.94
2022-10-07T22:29:09.941Z,101561.50
2022-10-07T22:31:37.344Z,101556.47
2022-10-07T22:34:06.323Z,101555.88
2022-10-07T22:36:33.436Z,101550.47
2022-10-07T22:39:00.175Z,101547.88
2022-10-07T22:41:27.527Z,101546.16
2022-10-07T22:43:59.447Z,101537.41
2022-10-07T22:46:28.236Z,101537.66
2022-10-07T22:48:58.482Z,101549.91
2022-10-07T22:51:29.186Z,101551.03
2022-10-07T22:53:59.344Z,101544.16
2022-10-07T22:56:28.058Z,101548.72
2022-10-07T22:59:00.244Z,101541.44
2022-10-07T23:01:29.486Z,101545.88
2022-10-07T23:03:58.762Z,101530.59
2022-10-07T23:06:25.398Z,101537.00
2022-10-07T23:08:52.028Z,101541.44
2022-10-07T23:11:24.093Z,101531.31
2022-10-07T23:13:55.567Z,101539.19
2022-10-07T23:16:24.769Z,101535.50
2022-10-07T23:18:53.591Z,101537.06
2022-10-07T23:21:23.695Z,101530.53
2022-10-07T23:23:56.598Z,101517.81
2022-10-07T23:26:26.183Z,101518.53
2022-10-07T23:28:54.436Z,101511.13
2022-10-07T23:31:22.661Z,101512.75
2022-10-07T23:33:52.101Z,101512.59
2022-10-07T23:36:20.692Z,101511.59
2022-10-07T23:38:49.137Z,101509.63
2022-10-07T23:41:18.476Z,101505.78
2022-10-07T23:43:51.547Z,101503.06
2022-10-07T23:46:19.722Z,101509.22
2022-10-07T23:48:47.174Z,101492.66
2022-10-07T23:51:20.526Z,101486.09
2022-10-07T23:53:51.506Z,101493.97
2022-10-07T23:56:19.051Z,101489.38
2022-10-07T23:58:45.766Z,101491.25
